Time;durP1;ratioP1;P1;durP2;ratioP2;P2;SDS_P1;SDS_P2;PMS_P1;PMS_P2;Temp;Humidity;BMP_temperature;BMP_pressure;BME280_temperature;BME280_humidity;BME280_pressure;Samples;Min_cycle;Max_cycle;Signal;HPM_P1;HPM_P2
2021/04/22 00:00:12;;;;;;;2.17;0.40;;;4.10;99.90;;;;;;5042126;28;20179;-78
2021/04/22 00:02:39;;;;;;;1.65;0.43;;;4.10;99.90;;;;;;5043784;28;20068;-78
2021/04/22 00:05:24;;;;;;;2.50;0.30;;;4.20;99.90;;;;;;5043500;28;20042;-79
2021/04/22 00:07:52;;;;;;;2.20;0.30;;;4.10;99.90;;;;;;5041917;28;20091;-78
2021/04/22 00:10:23;;;;;;;1.52;0.38;;;4.10;99.90;;;;;;5063754;28;20590;-79
2021/04/22 00:12:50;;;;;;;0.30;0.25;;;4.10;99.90;;;;;;5046273;28;20048;-78
2021/04/22 00:15:19;;;;;;;2.30;0.63;;;4.10;99.90;;;;;;5027745;28;20039;-79
2021/04/22 00:17:47;;;;;;;4.70;0.45;;;4.10;99.90;;;;;;5027175;28;20120;-78
2021/04/22 00:20:15;;;;;;;5.15;0.80;;;4.10;99.90;;;;;;5062018;28;20049;-78
2021/04/22 00:22:42;;;;;;;1.67;0.80;;;4.10;99.90;;;;;;5062337;28;20060;-78
2021/04/22 00:25:09;;;;;;;3.13;1.38;;;4.10;99.90;;;;;;5043976;28;20691;-78
2021/04/22 00:27:36;;;;;;;1.85;0.77;;;4.10;99.90;;;;;;5060685;28;20056;-78
2021/04/22 00:30:05;;;;;;;2.05;0.80;;;4.10;99.90;;;;;;5056970;28;20071;-79
2021/04/22 00:32:32;;;;;;;1.52;0.50;;;4.10;99.90;;;;;;5029968;28;20096;-79
2021/04/22 00:34:59;;;;;;;1.63;0.65;;;4.10;99.90;;;;;;5061949;28;20151;-79
2021/04/22 00:37:25;;;;;;;1.15;0.43;;;4.10;99.90;;;;;;5044608;28;20079;-78
2021/04/22 00:39:52;;;;;;;3.72;1.45;;;4.10;99.90;;;;;;5064692;28;20491;-78
2021/04/22 00:42:19;;;;;;;1.05;0.77;;;4.10;99.90;;;;;;5063236;28;20060;-79
2021/04/22 00:44:47;;;;;;;2.38;0.63;;;4.10;99.90;;;;;;5047210;28;20048;-78
2021/04/22 00:47:18;;;;;;;4.45;0.50;;;4.10;99.90;;;;;;5049104;28;20138;-79
2021/04/22 00:49:47;;;;;;;5.53;1.33;;;4.20;99.90;;;;;;5028154;28;20059;-78
2021/04/22 00:52:14;;;;;;;5.72;1.10;;;4.20;99.90;;;;;;5048972;28;20657;-78
2021/04/22 00:54:41;;;;;;;0.60;0.50;;;4.20;99.90;;;;;;5048953;28;20102;-79
2021/04/22 00:57:09;;;;;;;0.90;0.55;;;4.20;99.90;;;;;;5032588;28;20037;-78
2021/04/22 00:59:36;;;;;;;2.92;0.55;;;4.20;99.90;;;;;;5064918;28;20339;-78
2021/04/22 01:02:13;;;;;;;1.65;0.77;;;4.20;99.90;;;;;;5064823;28;20489;-78
2021/04/22 01:04:42;;;;;;;0.93;0.50;;;4.30;99.90;;;;;;5065783;28;20049;-79
2021/04/22 01:07:09;;;;;;;4.00;0.93;;;4.30;99.90;;;;;;5063996;28;20049;-78
2021/04/22 01:09:35;;;;;;;2.17;0.82;;;4.30;99.90;;;;;;5047751;28;20054;-78
2021/04/22 01:12:04;;;;;;;0.98;0.40;;;4.40;99.90;;;;;;5046200;28;20043;-78
2021/04/22 01:14:30;;;;;;;4.35;1.58;;;4.40;99.90;;;;;;5045235;28;20795;-78
2021/04/22 01:16:57;;;;;;;1.52;0.50;;;4.40;99.90;;;;;;5048721;28;20439;-78
2021/04/22 01:19:24;;;;;;;0.75;0.40;;;4.40;99.90;;;;;;5045442;28;20059;-78
2021/04/22 01:21:52;;;;;;;4.05;1.08;;;4.50;99.90;;;;;;5064277;28;20408;-78
2021/04/22 01:24:19;;;;;;;2.53;0.82;;;4.50;99.90;;;;;;5044691;28;20080;-78
2021/04/22 01:26:45;;;;;;;0.50;0.50;;;4.50;99.90;;;;;;5047317;28;20074;-78
2021/04/22 01:29:13;;;;;;;0.20;0.20;;;4.60;99.90;;;;;;5063950;28;20049;-78
2021/04/22 01:31:40;;;;;;;1.73;0.70;;;4.60;99.90;;;;;;5047277;28;20029;-78
2021/04/22 01:34:09;;;;;;;3.80;0.45;;;4.60;99.90;;;;;;5063573;28;20076;-78
2021/04/22 01:36:39;;;;;;;1.05;0.43;;;4.60;99.90;;;;;;5042231;28;20040;-78
2021/04/22 01:39:06;;;;;;;;;;;4.60;99.90;;;;;;5062143;28;20043;-79
2021/04/22 01:41:33;;;;;;;2.17;0.20;;;4.60;99.90;;;;;;5047656;28;19932;-78
2021/04/22 01:44:00;;;;;;;2.83;0.60;;;4.60;99.90;;;;;;5042990;28;20534;-78
2021/04/22 01:46:27;;;;;;;2.38;0.70;;;4.60;99.90;;;;;;5065751;28;20055;-78
2021/04/22 01:48:55;;;;;;;1.60;0.20;;;4.60;99.90;;;;;;5033960;28;20037;-79
2021/04/22 01:51:22;;;;;;;0.52;0.32;;;4.60;99.90;;;;;;5044832;28;20046;-79
2021/04/22 01:53:49;;;;;;;2.03;0.80;;;4.60;99.90;;;;;;5044344;28;20420;-78
2021/04/22 01:56:17;;;;;;;1.92;0.40;;;4.60;99.90;;;;;;5032700;28;20041;-78
2021/04/22 01:58:44;;;;;;;2.88;0.40;;;4.60;99.90;;;;;;5061244;28;20064;-78
2021/04/22 02:01:11;;;;;;;0.68;0.30;;;4.60;99.90;;;;;;5048850;28;20157;-79
2021/04/22 02:03:38;;;;;;;1.65;0.40;;;4.60;99.90;;;;;;5063695;28;20093;-79
2021/04/22 02:06:07;;;;;;;0.80;0.30;;;4.50;99.90;;;;;;5063373;28;20044;-78
2021/04/22 02:08:35;;;;;;;1.38;0.28;;;4.50;99.90;;;;;;5064363;28;20059;-79
2021/04/22 02:11:03;;;;;;;0.90;0.65;;;4.50;99.90;;;;;;5046353;28;20032;-77
2021/04/22 02:13:31;;;;;;;1.45;0.40;;;4.50;99.90;;;;;;5045761;28;20049;-79
2021/04/22 02:15:58;;;;;;;0.30;0.22;;;4.50;99.90;;;;;;5027650;28;20044;-78
2021/04/22 02:18:25;;;;;;;0.93;0.40;;;4.50;99.90;;;;;;5028604;28;20036;-78
2021/04/22 02:20:52;;;;;;;1.45;0.50;;;4.50;99.90;;;;;;5063859;28;20056;-78
2021/04/22 02:23:21;;;;;;;0.68;0.40;;;4.50;99.90;;;;;;5047777;28;20710;-78
2021/04/22 02:25:48;;;;;;;1.40;0.38;;;4.40;99.90;;;;;;5061197;28;20063;-78
2021/04/22 02:28:15;;;;;;;11.07;1.63;;;4.20;99.90;;;;;;5050379;28;20040;-78
2021/04/22 02:30:43;;;;;;;2.55;0.47;;;4.00;99.90;;;;;;5029314;28;20520;-79
2021/04/22 02:33:13;;;;;;;2.20;0.47;;;3.90;99.90;;;;;;5065455;28;20048;-78
2021/04/22 02:35:42;;;;;;;1.15;0.57;;;3.80;99.90;;;;;;5062575;28;20544;-78
2021/04/22 02:38:10;;;;;;;0.40;0.30;;;3.80;99.90;;;;;;5044491;28;20596;-78
2021/04/22 02:40:38;;;;;;;1.35;0.22;;;3.70;99.90;;;;;;5033539;28;20070;-78
2021/04/22 02:43:08;;;;;;;0.85;0.20;;;3.70;99.90;;;;;;5039691;28;20044;-77
2021/04/22 02:45:37;;;;;;;0.63;0.60;;;3.70;99.90;;;;;;5056735;28;20056;-79
2021/04/22 02:48:05;;;;;;;0.67;0.27;;;3.70;99.90;;;;;;5035814;28;20045;-79
2021/04/22 02:50:35;;;;;;;2.42;2.22;;;3.70;99.90;;;;;;5054246;28;20052;-78
2021/04/22 02:53:02;;;;;;;0.50;0.22;;;3.60;99.90;;;;;;5033885;28;20048;-79
2021/04/22 02:55:29;;;;;;;1.35;0.45;;;3.60;99.90;;;;;;5055419;28;20040;-79
2021/04/22 02:58:16;;;;;;;0.57;0.20;;;3.60;99.90;;;;;;5036085;28;20045;-78
2021/04/22 03:00:44;;;;;;;2.55;0.57;;;3.60;99.90;;;;;;5055721;28;20049;-78
2021/04/22 03:03:12;;;;;;;0.47;0.25;;;3.60;99.90;;;;;;5037350;28;20339;-78
2021/04/22 03:05:39;;;;;;;0.40;0.30;;;3.60;99.90;;;;;;5035534;28;20040;-78
2021/04/22 03:08:06;;;;;;;0.30;0.30;;;3.60;99.90;;;;;;5048849;28;20158;-78
2021/04/22 03:10:34;;;;;;;1.77;1.67;;;3.60;99.90;;;;;;5037294;28;20114;-78
2021/04/22 03:13:01;;;;;;;3.25;0.50;;;3.70;99.90;;;;;;5045030;28;20076;-78
2021/04/22 03:15:28;;;;;;;0.10;0.10;;;3.70;99.90;;;;;;5054530;28;20048;-78
2021/04/22 03:17:54;;;;;;;0.28;0.20;;;3.70;99.90;;;;;;5032026;28;20382;-77
2021/04/22 03:20:22;;;;;;;0.20;0.20;;;3.70;99.90;;;;;;5034714;28;20102;-77
2021/04/22 03:22:49;;;;;;;1.80;0.30;;;3.70;99.90;;;;;;5036554;28;20052;-77
2021/04/22 03:25:18;;;;;;;0.88;0.28;;;3.70;99.90;;;;;;5056520;28;20405;-78
2021/04/22 03:27:45;;;;;;;0.30;0.17;;;3.70;99.90;;;;;;5033834;28;20066;-78
2021/04/22 03:30:14;;;;;;;0.50;0.20;;;3.70;99.90;;;;;;5056409;28;20055;-78
2021/04/22 03:32:41;;;;;;;0.65;0.65;;;3.70;99.90;;;;;;5033350;28;20052;-78
2021/04/22 03:35:09;;;;;;;0.90;0.22;;;3.70;99.90;;;;;;5056956;28;20036;-77
2021/04/22 03:37:36;;;;;;;0.25;0.20;;;3.70;99.90;;;;;;5035770;28;20705;-78
2021/04/22 03:40:05;;;;;;;1.00;0.30;;;3.70;99.90;;;;;;5034887;28;20095;-78
2021/04/22 03:42:32;;;;;;;2.83;0.45;;;3.70;99.90;;;;;;5021368;28;20067;-78
2021/04/22 03:44:59;;;;;;;0.60;0.20;;;3.70;99.90;;;;;;5032836;28;20036;-77
2021/04/22 03:47:26;;;;;;;0.50;0.30;;;3.70;99.90;;;;;;5049019;28;20048;-77
2021/04/22 03:49:52;;;;;;;0.95;0.20;;;3.70;99.90;;;;;;5037122;28;20040;-77
2021/04/22 03:52:19;;;;;;;0.40;0.20;;;3.70;99.90;;;;;;5053759;28;20044;-78
2021/04/22 03:54:46;;;;;;;0.20;0.20;;;3.70;99.90;;;;;;5055030;28;20063;-77
2021/04/22 03:57:14;;;;;;;0.20;0.20;;;3.70;99.90;;;;;;5053752;28;20110;-77
2021/04/22 03:59:41;;;;;;;0.55;0.20;;;3.70;99.90;;;;;;5054455;28;20056;-77
2021/04/22 04:02:07;;;;;;;2.45;0.50;;;3.70;99.90;;;;;;5050274;28;20071;-78
2021/04/22 04:04:34;;;;;;;0.35;0.10;;;3.70;99.90;;;;;;5038119;28;20545;-77
2021/04/22 04:07:01;;;;;;;0.17;0.17;;;3.70;99.90;;;;;;5042589;28;20361;-77
2021/04/22 04:09:27;;;;;;;0.38;0.20;;;3.70;99.90;;;;;;5053932;28;20120;-77
2021/04/22 04:11:54;;;;;;;0.15;0.10;;;3.70;99.90;;;;;;5041109;28;20048;-77
2021/04/22 04:14:20;;;;;;;0.50;0.13;;;3.70;99.90;;;;;;5062706;28;20055;-77
2021/04/22 04:16:47;;;;;;;0.82;0.22;;;3.80;99.90;;;;;;5060502;28;20143;-77
2021/04/22 04:19:14;;;;;;;0.35;0.35;;;3.80;99.90;;;;;;5044616;28;20079;-77
2021/04/22 04:21:41;;;;;;;0.43;0.32;;;3.80;99.90;;;;;;5040693;28;20578;-77
2021/04/22 04:24:08;;;;;;;0.25;0.20;;;3.80;99.90;;;;;;5038282;28;20519;-78
2021/04/22 04:26:35;;;;;;;0.30;0.20;;;3.80;99.90;;;;;;5038084;28;20048;-77
2021/04/22 04:29:02;;;;;;;0.20;0.20;;;3.90;99.90;;;;;;5042189;28;20805;-77
2021/04/22 04:31:29;;;;;;;1.38;0.95;;;3.90;99.90;;;;;;5060410;28;20740;-78
2021/04/22 04:33:56;;;;;;;2.25;0.45;;;3.90;99.90;;;;;;5060954;28;20048;-77
2021/04/22 04:36:23;;;;;;;0.20;0.20;;;3.90;99.90;;;;;;5061546;28;20078;-77
2021/04/22 04:38:49;;;;;;;0.32;0.28;;;3.90;99.90;;;;;;5062475;28;20052;-77
2021/04/22 04:41:16;;;;;;;1.00;0.65;;;4.00;99.90;;;;;;5061933;28;20052;-77
2021/04/22 04:43:43;;;;;;;0.20;0.20;;;4.00;99.90;;;;;;5058987;28;20075;-77
2021/04/22 04:46:14;;;;;;;1.10;0.73;;;4.00;99.90;;;;;;5042534;28;20045;-77
2021/04/22 04:48:40;;;;;;;0.40;0.13;;;4.10;99.90;;;;;;5043840;28;20082;-77
2021/04/22 04:51:07;;;;;;;0.25;0.25;;;4.10;99.90;;;;;;5061219;28;20045;-77
2021/04/22 04:53:34;;;;;;;0.43;0.35;;;4.10;99.90;;;;;;5057048;28;20482;-78
2021/04/22 04:56:01;;;;;;;0.52;0.20;;;4.10;99.90;;;;;;5026009;28;20049;-77
2021/04/22 04:58:34;;;;;;;1.85;0.35;;;4.10;99.90;;;;;;5045028;28;20052;-77
2021/04/22 05:01:01;;;;;;;0.43;0.30;;;4.20;99.90;;;;;;5040899;28;20045;-78
2021/04/22 05:03:27;;;;;;;5.70;0.85;;;4.10;99.90;;;;;;5059555;28;20539;-77
2021/04/22 05:05:54;;;;;;;1.02;0.30;;;4.10;99.90;;;;;;5039315;28;20076;-77
2021/04/22 05:08:20;;;;;;;1.75;0.25;;;4.10;99.90;;;;;;5059417;28;20139;-77
2021/04/22 05:10:47;;;;;;;0.57;0.20;;;4.10;99.90;;;;;;5040234;28;20072;-77
2021/04/22 05:13:13;;;;;;;0.50;0.30;;;4.10;99.90;;;;;;5044112;28;20041;-78
2021/04/22 05:15:40;;;;;;;1.55;0.20;;;4.10;99.90;;;;;;5028455;28;20555;-77
2021/04/22 05:18:06;;;;;;;0.60;0.30;;;4.20;99.90;;;;;;5019884;28;20397;-77
2021/04/22 05:20:33;;;;;;;0.88;0.50;;;4.20;99.90;;;;;;5028320;28;20631;-77
2021/04/22 05:22:59;;;;;;;2.17;1.00;;;4.20;99.90;;;;;;5057909;28;20481;-77
2021/04/22 05:25:26;;;;;;;0.40;0.32;;;4.20;99.90;;;;;;5042043;28;20048;-77
2021/04/22 05:27:53;;;;;;;0.57;0.30;;;4.20;99.90;;;;;;5059971;28;20139;-77
2021/04/22 05:30:19;;;;;;;0.65;0.22;;;4.20;99.90;;;;;;5055955;28;20102;-77
2021/04/22 05:32:46;;;;;;;0.75;0.20;;;4.20;99.90;;;;;;5044155;28;20063;-77
2021/04/22 05:35:13;;;;;;;1.50;0.20;;;4.20;99.90;;;;;;5057719;28;20075;-77
2021/04/22 05:37:49;;;;;;;2.22;0.20;;;4.20;99.90;;;;;;5040187;28;20044;-77
2021/04/22 05:40:17;;;;;;;0.10;0.10;;;4.10;99.90;;;;;;5042367;28;20389;-77
2021/04/22 05:42:43;;;;;;;0.60;0.30;;;4.10;99.90;;;;;;5025849;28;20223;-77
2021/04/22 05:45:14;;;;;;;0.30;0.30;;;4.10;99.90;;;;;;5055461;28;20055;-77
2021/04/22 05:47:41;;;;;;;1.13;0.38;;;4.20;99.90;;;;;;5063225;28;20136;-77
2021/04/22 05:50:08;;;;;;;0.30;0.30;;;4.20;99.90;;;;;;5061801;28;20582;-77
2021/04/22 05:52:35;;;;;;;0.30;0.30;;;4.20;99.90;;;;;;5062303;28;20227;-77
2021/04/22 05:55:03;;;;;;;0.38;0.22;;;4.20;99.90;;;;;;5063873;28;20048;-78
2021/04/22 05:57:30;;;;;;;2.55;1.05;;;4.30;99.90;;;;;;5043248;28;20091;-77
2021/04/22 05:59:57;;;;;;;0.70;0.25;;;4.30;99.90;;;;;;5062106;28;20075;-77
2021/04/22 06:02:24;;;;;;;3.47;0.65;;;4.30;99.90;;;;;;5056616;28;20547;-77
2021/04/22 06:04:50;;;;;;;2.67;0.22;;;4.20;99.90;;;;;;5047287;28;20137;-78
2021/04/22 06:07:17;;;;;;;0.30;0.30;;;4.20;99.90;;;;;;5028627;28;20130;-77
2021/04/22 06:09:44;;;;;;;0.52;0.17;;;4.20;99.90;;;;;;5047022;28;20048;-77
2021/04/22 06:12:11;;;;;;;3.92;0.20;;;4.20;99.90;;;;;;5044693;28;20037;-77
2021/04/22 06:14:37;;;;;;;3.85;0.52;;;4.10;99.90;;;;;;5030889;28;20055;-77
2021/04/22 06:17:04;;;;;;;1.25;0.13;;;4.10;99.90;;;;;;5063051;28;20040;-77
2021/04/22 06:19:31;;;;;;;1.55;0.00;;;4.00;99.90;;;;;;5048605;28;20040;-77
2021/04/22 06:21:57;;;;;;;0.93;0.30;;;4.00;99.90;;;;;;5042921;28;20518;-77
2021/04/22 06:24:24;;;;;;;1.48;1.05;;;3.90;99.90;;;;;;5028909;28;20044;-78
2021/04/22 06:26:51;;;;;;;1.15;0.30;;;3.80;99.90;;;;;;5046760;28;20040;-77
2021/04/22 06:29:18;;;;;;;1.40;0.50;;;3.60;99.90;;;;;;5062760;28;20040;-78
2021/04/22 06:31:47;;;;;;;3.50;0.38;;;3.50;99.90;;;;;;5045981;28;20060;-78
2021/04/22 06:34:15;;;;;;;3.13;0.63;;;3.40;99.90;;;;;;5045187;28;20586;-78
2021/04/22 06:36:43;;;;;;;0.55;0.10;;;3.40;99.90;;;;;;5043343;28;20060;-78
2021/04/22 06:39:10;;;;;;;0.17;0.10;;;3.40;99.90;;;;;;5042556;28;20047;-78
2021/04/22 06:41:38;;;;;;;0.20;0.20;;;3.40;99.90;;;;;;5044226;28;20059;-78
2021/04/22 06:44:04;;;;;;;0.17;0.17;;;3.30;99.90;;;;;;5057782;28;20510;-78
2021/04/22 06:46:33;;;;;;;1.92;0.65;;;3.40;99.90;;;;;;5045748;28;20508;-78
2021/04/22 06:49:00;;;;;;;0.20;0.20;;;3.40;99.90;;;;;;5040122;28;20128;-77
2021/04/22 06:51:27;;;;;;;0.55;0.40;;;3.50;99.90;;;;;;5061547;28;20053;-78
2021/04/22 06:53:53;;;;;;;0.30;0.30;;;3.60;99.90;;;;;;5043936;28;20056;-78
2021/04/22 06:56:20;;;;;;;0.05;0.05;;;3.70;99.90;;;;;;5046000;28;20043;-78
2021/04/22 06:58:46;;;;;;;0.70;0.20;;;3.80;99.90;;;;;;5045648;28;20047;-78
2021/04/22 07:01:13;;;;;;;0.88;0.22;;;3.90;99.90;;;;;;5046573;28;20045;-78
2021/04/22 07:03:40;;;;;;;0.20;0.20;;;4.00;99.90;;;;;;5049372;28;20125;-78
2021/04/22 07:06:08;;;;;;;0.30;0.20;;;4.10;99.90;;;;;;5041320;28;20049;-78
2021/04/22 07:08:34;;;;;;;0.68;0.32;;;4.30;99.90;;;;;;5030564;28;20471;-77
2021/04/22 07:11:01;;;;;;;2.78;0.55;;;4.30;99.90;;;;;;5027949;28;20056;-78
2021/04/22 07:13:28;;;;;;;0.55;0.40;;;4.50;99.90;;;;;;5047323;28;20047;-78
2021/04/22 07:15:54;;;;;;;1.48;0.68;;;4.60;99.90;;;;;;5040943;28;20045;-78
2021/04/22 07:18:23;;;;;;;0.55;0.22;;;4.60;99.90;;;;;;5062870;28;20358;-78
2021/04/22 07:20:50;;;;;;;0.55;0.17;;;4.70;99.90;;;;;;5041884;28;20128;-78
2021/04/22 07:23:16;;;;;;;0.30;0.30;;;4.80;99.90;;;;;;5060662;28;20599;-78
2021/04/22 07:25:43;;;;;;;1.05;0.30;;;4.90;99.90;;;;;;5047901;28;20122;-78
2021/04/22 07:28:11;;;;;;;0.68;0.47;;;4.90;99.90;;;;;;5045488;28;20037;-78
2021/04/22 07:30:39;;;;;;;1.42;0.30;;;4.80;99.90;;;;;;5025622;28;20088;-78
2021/04/22 07:33:07;;;;;;;2.83;0.40;;;4.80;99.90;;;;;;5066582;28;20048;-78
2021/04/22 07:35:35;;;;;;;0.25;0.25;;;4.90;99.90;;;;;;5028729;28;20355;-77
2021/04/22 07:38:02;;;;;;;0.63;0.40;;;4.90;99.90;;;;;;5059840;28;20052;-78
2021/04/22 07:40:30;;;;;;;1.05;0.80;;;4.90;99.90;;;;;;5049890;28;20062;-78
2021/04/22 07:42:57;;;;;;;0.30;0.30;;;4.90;99.90;;;;;;5043360;28;20049;-78
2021/04/22 07:45:28;;;;;;;1.45;0.55;;;4.90;99.90;;;;;;5062139;28;20154;-77
2021/04/22 07:47:55;;;;;;;0.20;0.20;;;4.90;99.90;;;;;;5062627;28;20041;-78
2021/04/22 07:50:23;;;;;;;0.10;0.10;;;4.90;99.90;;;;;;5046739;28;20044;-77
2021/04/22 07:52:50;;;;;;;3.70;0.50;;;4.90;99.90;;;;;;5061210;28;20032;-78
2021/04/22 07:55:23;;;;;;;0.25;0.10;;;4.80;99.90;;;;;;5047333;28;20461;-77
2021/04/22 07:57:50;;;;;;;1.17;0.57;;;4.80;99.90;;;;;;5040164;28;20359;-77
2021/04/22 08:00:19;;;;;;;1.33;0.30;;;4.90;99.90;;;;;;5059184;28;20048;-79
2021/04/22 08:02:47;;;;;;;7.28;0.57;;;5.00;99.90;;;;;;5062650;28;20057;-79
2021/04/22 08:05:16;;;;;;;0.32;0.32;;;5.10;99.90;;;;;;5061628;28;20052;-76
2021/04/22 08:08:05;;;;;;;1.02;0.43;;;5.20;99.90;;;;;;5019491;28;20044;-79
2021/04/22 08:10:33;;;;;;;1.03;0.40;;;5.00;99.90;;;;;;5059237;28;20587;-78
2021/04/22 08:13:03;;;;;;;0.55;0.30;;;5.10;99.90;;;;;;5045162;28;20374;-79
2021/04/22 08:15:34;;;;;;;1.55;0.20;;;5.10;99.90;;;;;;5067739;28;20048;-78
2021/04/22 08:18:02;;;;;;;0.50;0.20;;;5.10;99.90;;;;;;5045572;28;20716;-79
2021/04/22 08:20:28;;;;;;;0.43;0.40;;;5.20;99.90;;;;;;5033355;28;20731;-79
2021/04/22 08:22:57;;;;;;;0.20;0.20;;;5.30;99.90;;;;;;5045279;28;20047;-79
2021/04/22 08:25:31;;;;;;;0.77;0.40;;;5.30;99.90;;;;;;5063676;28;20043;-79
2021/04/22 08:27:59;;;;;;;0.30;0.30;;;5.40;99.90;;;;;;5059713;28;20048;-79
2021/04/22 08:30:32;;;;;;;1.00;0.30;;;5.20;99.90;;;;;;5049067;28;20536;-79
2021/04/22 08:33:00;;;;;;;0.35;0.15;;;5.00;99.90;;;;;;5045450;28;20225;-78
2021/04/22 08:35:28;;;;;;;0.52;0.20;;;4.90;99.90;;;;;;5028069;28;20037;-78
2021/04/22 08:37:55;;;;;;;2.78;0.30;;;4.90;99.90;;;;;;5035477;28;20163;-78
2021/04/22 08:40:22;;;;;;;0.57;0.20;;;5.00;99.90;;;;;;5046383;28;20481;-77
2021/04/22 08:42:49;;;;;;;0.98;0.32;;;4.80;99.90;;;;;;5045173;28;20051;-77
2021/04/22 08:45:16;;;;;;;0.30;0.30;;;4.80;99.90;;;;;;5055566;28;20052;-77
2021/04/22 08:47:44;;;;;;;0.40;0.40;;;4.60;99.90;;;;;;5045531;28;20061;-78
2021/04/22 08:50:20;;;;;;;0.45;0.40;;;4.60;99.90;;;;;;5024775;28;20040;-78
2021/04/22 08:52:53;;;;;;;0.43;0.20;;;4.70;99.90;;;;;;5062973;28;20130;-78
2021/04/22 08:55:23;;;;;;;0.40;0.25;;;4.90;99.90;;;;;;5061133;28;20052;-78
2021/04/22 08:57:50;;;;;;;0.30;0.30;;;4.80;99.90;;;;;;5040889;28;20044;-77
2021/04/22 09:00:20;;;;;;;0.82;0.38;;;5.00;99.90;;;;;;5063399;28;20055;-76
2021/04/22 09:02:47;;;;;;;1.85;0.30;;;5.10;99.90;;;;;;5066514;28;20047;-76
2021/04/22 09:05:15;;;;;;;0.10;0.10;;;5.30;99.90;;;;;;5045386;28;20045;-76
2021/04/22 09:07:42;;;;;;;0.52;0.38;;;5.20;99.90;;;;;;5048810;28;20102;-76
2021/04/22 09:10:10;;;;;;;0.30;0.30;;;5.30;99.90;;;;;;5060594;28;20059;-79
2021/04/22 09:12:37;;;;;;;0.25;0.20;;;5.40;99.90;;;;;;5049412;28;20041;-79
2021/04/22 09:15:12;;;;;;;0.82;0.10;;;5.40;99.90;;;;;;5064505;28;20146;-77
2021/04/22 09:17:40;;;;;;;0.30;0.20;;;5.50;99.90;;;;;;5038271;28;20061;-77
2021/04/22 09:20:09;;;;;;;1.40;0.22;;;5.70;99.90;;;;;;5044381;28;20379;-78
2021/04/22 09:22:42;;;;;;;1.63;0.40;;;5.60;99.90;;;;;;5049373;28;20149;-80
2021/04/22 09:25:11;;;;;;;0.40;0.40;;;5.50;99.90;;;;;;5047052;28;20170;-79
2021/04/22 09:27:38;;;;;;;5.32;0.40;;;5.60;99.90;;;;;;5065678;28;20139;-78
2021/04/22 09:30:06;;;;;;;0.47;0.40;;;5.70;99.90;;;;;;5050216;28;24798;-78
2021/04/22 09:32:33;;;;;;;0.43;0.40;;;5.70;99.90;;;;;;5049220;28;20064;-78
2021/04/22 09:35:11;;;;;;;0.45;0.45;;;5.70;99.90;;;;;;5051237;28;20091;-78
2021/04/22 09:37:49;;;;;;;0.85;0.40;;;5.60;99.90;;;;;;5063544;28;20063;-78
2021/04/22 09:40:23;;;;;;;0.60;0.20;;;5.30;99.90;;;;;;5045818;28;20036;-78
2021/04/22 09:42:51;;;;;;;1.05;0.65;;;5.20;99.90;;;;;;5067746;28;20052;-80
2021/04/22 09:45:22;;;;;;;1.65;0.70;;;5.10;99.90;;;;;;5064800;28;20688;-80
2021/04/22 09:48:28;;;;;;;3.60;1.05;;;5.10;99.90;;;;;;5065674;28;20056;-80
2021/04/22 09:51:00;;;;;;;6.88;0.90;;;5.20;99.90;;;;;;5031551;28;20063;-79
2021/04/22 09:53:28;;;;;;;7.88;1.85;;;5.10;99.90;;;;;;5068062;28;20147;-80
2021/04/22 09:56:09;;;;;;;3.20;0.98;;;5.10;99.90;;;;;;5046121;28;20110;-80
2021/04/22 09:58:35;;;;;;;4.60;1.15;;;5.20;99.90;;;;;;5048608;28;20052;-80
2021/04/22 10:01:07;;;;;;;4.50;1.33;;;5.10;99.90;;;;;;5031827;28;20056;-79
2021/04/22 10:03:34;;;;;;;4.57;1.50;;;5.10;99.90;;;;;;5067734;28;20041;-80
2021/04/22 10:06:04;;;;;;;3.85;1.60;;;5.10;99.90;;;;;;5029687;28;20049;-80
2021/04/22 10:08:30;;;;;;;3.45;0.70;;;5.10;99.90;;;;;;5047760;28;20125;-80
2021/04/22 10:10:59;;;;;;;6.07;1.20;;;5.00;99.90;;;;;;5066507;28;20044;-80
2021/04/22 10:13:26;;;;;;;4.45;1.23;;;4.90;99.90;;;;;;5067471;28;20084;-80
2021/04/22 10:15:55;;;;;;;4.95;0.90;;;5.00;99.90;;;;;;5046282;28;20044;-79
2021/04/22 10:18:34;;;;;;;2.47;0.70;;;5.10;99.90;;;;;;5067482;28;20041;-80
2021/04/22 10:21:01;;;;;;;8.63;1.13;;;5.10;99.90;;;;;;5031732;28;20440;-80
2021/04/22 10:23:29;;;;;;;1.23;0.60;;;4.90;99.90;;;;;;5048310;28;20075;-80
2021/04/22 10:25:56;;;;;;;4.85;1.35;;;4.70;99.90;;;;;;5046343;28;20040;-79
2021/04/22 10:28:23;;;;;;;4.28;1.20;;;4.70;99.90;;;;;;5047008;28;20045;-78
2021/04/22 10:30:52;;;;;;;3.30;0.77;;;4.50;99.90;;;;;;5062946;28;20109;-78
2021/04/22 10:33:20;;;;;;;5.53;1.10;;;4.60;99.90;;;;;;5046900;28;20036;-78
2021/04/22 10:35:47;;;;;;;4.57;1.00;;;4.50;99.90;;;;;;5060569;28;20041;-78
2021/04/22 10:38:14;;;;;;;6.00;1.10;;;4.40;99.90;;;;;;5042530;28;20060;-79
2021/04/22 10:40:46;;;;;;;2.20;0.70;;;4.50;99.90;;;;;;5041772;28;20057;-78
2021/04/22 10:43:22;;;;;;;9.52;0.75;;;4.50;99.90;;;;;;5064488;28;20041;-78
2021/04/22 10:45:50;;;;;;;4.45;0.75;;;4.50;99.90;;;;;;5042130;28;20076;-79
2021/04/22 10:48:17;;;;;;;4.32;0.65;;;4.30;99.90;;;;;;5042340;28;20048;-79
2021/04/22 10:50:50;;;;;;;3.13;0.77;;;4.20;99.90;;;;;;5066043;28;20163;-80
2021/04/22 10:53:22;;;;;;;1.48;0.57;;;4.20;99.90;;;;;;5050436;28;20406;-78
2021/04/22 10:55:55;;;;;;;6.22;0.98;;;4.20;99.90;;;;;;5060471;28;20123;-77
2021/04/22 10:58:45;;;;;;;1.27;0.30;;;4.20;99.90;;;;;;5063434;28;20124;-79
2021/04/22 11:01:14;;;;;;;7.63;0.65;;;4.10;99.90;;;;;;5060889;28;20072;-79
2021/04/22 11:03:43;;;;;;;2.17;0.73;;;4.10;99.90;;;;;;5062472;28;20139;-79
2021/04/22 11:06:17;;;;;;;7.18;0.52;;;4.20;99.90;;;;;;5043501;28;20465;-79
2021/04/22 11:08:51;;;;;;;6.45;1.00;;;4.10;99.90;;;;;;5046929;28;20044;-77
2021/04/22 11:11:25;;;;;;;2.80;0.90;;;4.20;99.90;;;;;;5042785;28;20135;-78
2021/04/22 11:14:14;;;;;;;6.35;0.65;;;4.20;99.90;;;;;;5043512;28;20036;-77
2021/04/22 11:16:53;;;;;;;1.88;0.80;;;4.30;99.90;;;;;;3436771;28;10021501;-77
2021/04/22 11:19:30;;;;;;;4.03;0.73;;;4.20;99.90;;;;;;2259015;28;10002133;-78
2021/04/22 11:21:59;;;;;;;2.25;0.60;;;4.10;99.90;;;;;;5058711;28;20108;-79
2021/04/22 11:24:36;;;;;;;2.03;0.53;;;4.00;99.90;;;;;;5031600;28;20079;-79
2021/04/22 11:27:12;;;;;;;0.63;0.57;;;3.90;99.90;;;;;;5062000;28;20274;-79
2021/04/22 11:29:48;;;;;;;3.78;0.50;;;3.80;99.90;;;;;;5054546;28;20196;-79
2021/04/22 11:32:32;;;;;;;2.08;0.45;;;3.90;99.90;;;;;;5047115;28;20485;-79
2021/04/22 11:35:13;;;;;;;1.02;0.40;;;3.90;99.90;;;;;;5047036;28;20068;-79
2021/04/22 11:38:04;;;;;;;2.45;0.43;;;3.90;99.90;;;;;;5065323;28;20044;-79
2021/04/22 11:40:45;;;;;;;0.93;0.47;;;3.80;99.90;;;;;;5034832;28;20510;-79
2021/04/22 11:43:22;;;;;;;;;;;3.80;99.90;;;;;;5066651;28;20040;-79
2021/04/22 11:45:51;;;;;;;4.32;0.50;;;3.70;99.90;;;;;;5062274;28;19937;-78
2021/04/22 11:48:21;;;;;;;6.17;1.07;;;3.70;99.90;;;;;;5046132;28;20048;-78
2021/04/22 11:50:54;;;;;;;3.03;0.40;;;3.70;99.90;;;;;;5046899;28;20136;-79
2021/04/22 11:53:37;;;;;;;4.07;0.65;;;3.70;99.90;;;;;;5065813;28;20075;-79
2021/04/22 11:56:06;;;;;;;7.20;1.50;;;3.70;99.90;;;;;;5061565;28;20035;-79
2021/04/22 11:58:34;;;;;;;51.03;21.23;;;3.60;99.90;;;;;;5049327;28;20041;-78
2021/04/22 12:01:07;;;;;;;27.75;16.48;;;3.60;99.90;;;;;;5046083;28;20888;-79
2021/04/22 12:03:39;;;;;;;4.65;1.52;;;3.50;99.90;;;;;;5060700;28;20143;-79
2021/04/22 12:06:09;;;;;;;3.78;0.60;;;3.50;99.90;;;;;;5030532;28;20545;-79
2021/04/22 12:08:38;;;;;;;2.88;0.68;;;3.50;99.90;;;;;;5047299;28;20067;-79
2021/04/22 12:11:07;;;;;;;1.20;0.60;;;3.50;99.90;;;;;;5048506;28;20101;-79
2021/04/22 12:13:34;;;;;;;1.25;0.40;;;3.50;99.90;;;;;;5055249;28;20044;-79
2021/04/22 12:16:03;;;;;;;0.73;0.57;;;3.50;99.90;;;;;;5056924;28;20151;-79
2021/04/22 12:18:32;;;;;;;4.40;0.70;;;3.40;99.90;;;;;;5040162;28;20143;-79
2021/04/22 12:21:08;;;;;;;3.47;0.70;;;3.30;99.90;;;;;;5044104;28;20072;-81
2021/04/22 12:23:40;;;;;;;6.70;1.02;;;3.30;99.90;;;;;;5050395;28;20044;-80
2021/04/22 12:26:17;;;;;;;1.60;0.47;;;3.20;99.90;;;;;;5042798;28;20051;-79
2021/04/22 12:29:05;;;;;;;1.42;1.02;;;3.20;99.90;;;;;;5045997;28;20149;-80
2021/04/22 12:31:37;;;;;;;3.50;0.52;;;3.20;99.90;;;;;;5031700;28;20835;-79
2021/04/22 12:34:15;;;;;;;2.08;0.47;;;3.20;99.90;;;;;;5054642;28;20048;-80
2021/04/22 12:37:06;;;;;;;3.10;0.70;;;3.20;99.90;;;;;;5045309;28;20051;-79
2021/04/22 12:39:41;;;;;;;2.15;1.17;;;3.10;99.90;;;;;;5045996;28;20776;-80
2021/04/22 12:42:21;;;;;;;1.58;0.70;;;3.10;99.90;;;;;;5049143;28;20068;-79
2021/04/22 12:45:15;;;;;;;3.45;0.80;;;3.10;99.90;;;;;;5043706;28;20036;-78
2021/04/22 12:47:53;;;;;;;1.15;0.40;;;3.10;99.90;;;;;;5047006;28;20071;-78
2021/04/22 12:50:26;;;;;;;2.53;0.43;;;3.10;99.90;;;;;;5044795;28;20421;-77
2021/04/22 12:53:20;;;;;;;4.95;1.55;;;3.20;99.90;;;;;;5050640;28;20132;-78
2021/04/22 12:55:56;;;;;;;1.35;0.50;;;3.20;99.90;;;;;;5042564;28;20147;-78
2021/04/22 12:58:34;;;;;;;1.55;0.38;;;3.10;99.90;;;;;;5065770;28;20460;-79
2021/04/22 13:01:08;;;;;;;2.20;0.40;;;3.10;99.90;;;;;;5066418;28;20098;-78
2021/04/22 13:03:37;;;;;;;2.72;0.73;;;3.20;99.90;;;;;;5061675;28;20054;-78
2021/04/22 13:06:09;;;;;;;3.45;0.60;;;3.10;99.90;;;;;;5061138;28;22419;-78
2021/04/22 13:08:37;;;;;;;2.72;0.50;;;3.00;99.90;;;;;;5048176;28;20049;-78